createdAt,value
2022-08-31T00:01:07.358Z,1.98
2022-08-31T00:03:54.300Z,2.15
2022-08-31T00:06:29.717Z,1.83
2022-08-31T00:09:04.233Z,2.67
2022-08-31T00:11:41.728Z,2.00
2022-08-31T00:14:16.742Z,2.23
2022-08-31T00:16:51.092Z,1.90
2022-08-31T00:19:25.435Z,1.73
2022-08-31T00:22:00.625Z,2.07
2022-08-31T00:24:35.030Z,1.98
2022-08-31T00:27:15.649Z,2.25
2022-08-31T00:29:50.174Z,2.25
2022-08-31T00:32:28.842Z,2.10
2022-08-31T00:35:03.317Z,1.80
2022-08-31T00:37:38.602Z,1.67
2022-08-31T00:40:14.499Z,1.80
2022-08-31T00:42:55.062Z,2.03
2022-08-31T00:45:29.063Z,1.95
2022-08-31T00:48:03.633Z,1.42
2022-08-31T00:50:38.175Z,1.70
2022-08-31T00:53:13.600Z,1.75
2022-08-31T00:55:46.269Z,1.88
2022-08-31T00:58:24.745Z,2.10
2022-08-31T01:00:59.610Z,1.92
2022-08-31T01:03:33.994Z,1.80
2022-08-31T01:06:07.966Z,2.28
2022-08-31T01:08:42.330Z,2.10
2022-08-31T01:11:17.972Z,1.75
2022-08-31T01:13:50.224Z,2.07
2022-08-31T01:16:29.446Z,1.85
2022-08-31T01:19:06.696Z,2.27
2022-08-31T01:21:43.534Z,1.67
2022-08-31T01:24:21.115Z,2.25
2022-08-31T01:26:55.515Z,1.98
2022-08-31T01:29:31.608Z,1.80
2022-08-31T01:32:06.673Z,1.92
2022-08-31T01:34:40.276Z,2.40
2022-08-31T01:37:15.546Z,1.85
2022-08-31T01:39:52.868Z,2.23
2022-08-31T01:42:33.506Z,1.92
2022-08-31T01:45:10.157Z,2.40
2022-08-31T01:47:44.300Z,2.00
2022-08-31T01:50:20.601Z,2.53
2022-08-31T01:52:56.619Z,2.60
2022-08-31T01:55:33.965Z,1.42
2022-08-31T01:58:09.007Z,2.35
2022-08-31T02:00:58.153Z,2.58
2022-08-31T02:03:35.417Z,3.05
2022-08-31T02:06:12.227Z,2.30
2022-08-31T02:08:47.768Z,1.70
2022-08-31T02:11:26.464Z,2.05
2022-08-31T02:14:01.645Z,1.92
2022-08-31T02:16:37.212Z,2.37
2022-08-31T02:19:15.309Z,1.90
2022-08-31T02:21:49.282Z,2.05
2022-08-31T02:24:25.406Z,1.90
2022-08-31T02:27:06.851Z,1.60
2022-08-31T02:29:42.320Z,1.60
2022-08-31T02:32:20.216Z,2.20
2022-08-31T02:34:55.787Z,2.53
2022-08-31T02:37:33.799Z,2.97
2022-08-31T02:40:12.376Z,3.80
2022-08-31T02:42:53.580Z,2.28
2022-08-31T02:45:34.264Z,2.90
2022-08-31T02:48:15.249Z,2.38
2022-08-31T02:50:51.875Z,2.28
2022-08-31T02:53:27.199Z,2.15
2022-08-31T02:56:02.236Z,1.95
2022-08-31T02:58:37.844Z,2.10
2022-08-31T03:01:14.457Z,2.13
2022-08-31T03:03:50.282Z,2.00
2022-08-31T03:06:30.019Z,3.10
2022-08-31T03:09:05.236Z,2.88
2022-08-31T03:11:40.683Z,2.55
2022-08-31T03:14:16.107Z,2.83
2022-08-31T03:16:52.809Z,2.90
2022-08-31T03:19:28.386Z,2.60
2022-08-31T03:22:03.851Z,1.90
2022-08-31T03:24:39.878Z,3.55
2022-08-31T03:27:14.255Z,3.80
2022-08-31T03:29:48.042Z,2.67
2022-08-31T03:32:28.180Z,2.70
2022-08-31T03:35:03.707Z,3.33
2022-08-31T03:37:39.151Z,2.77
2022-08-31T03:40:14.473Z,2.20
2022-08-31T03:42:50.276Z,2.00
2022-08-31T03:45:25.362Z,2.58
2022-08-31T03:48:11.408Z,3.25
2022-08-31T03:50:47.943Z,2.45
2022-08-31T03:53:29.827Z,2.70
2022-08-31T03:56:09.594Z,2.80
2022-08-31T03:58:50.529Z,2.90
2022-08-31T04:01:51.520Z,3.00
2022-08-31T04:04:47.380Z,3.15
2022-08-31T04:07:45.624Z,3.90
2022-08-31T04:10:43.021Z,5.05
2022-08-31T04:13:43.172Z,4.60
2022-08-31T04:16:38.837Z,5.23
2022-08-31T04:19:38.993Z,4.50
2022-08-31T04:22:36.312Z,3.92
2022-08-31T04:25:29.957Z,4.97
2022-08-31T04:28:04.799Z,4.90
2022-08-31T04:30:41.413Z,6.20
2022-08-31T04:33:18.873Z,6.55
2022-08-31T04:35:53.511Z,5.40
2022-08-31T04:38:31.497Z,4.87
2022-08-31T04:41:10.304Z,5.27
2022-08-31T04:43:48.099Z,5.55
2022-08-31T04:46:22.545Z,5.10
2022-08-31T04:48:58.207Z,5.38
2022-08-31T04:51:35.718Z,5.65
2022-08-31T04:54:14.253Z,5.90
2022-08-31T04:56:49.227Z,6.85
2022-08-31T04:59:34.439Z,7.25
2022-08-31T05:02:22.949Z,5.55
2022-08-31T05:05:06.402Z,5.50
2022-08-31T05:10:18.091Z,5.03
2022-08-31T05:12:52.642Z,5.40
2022-08-31T05:15:31.687Z,5.85
2022-08-31T05:18:07.331Z,5.82
2022-08-31T05:20:45.114Z,5.60
2022-08-31T05:23:19.855Z,5.68
2022-08-31T05:25:57.946Z,5.88
2022-08-31T05:28:35.588Z,4.80
2022-08-31T05:31:11.246Z,5.50
2022-08-31T05:33:51.900Z,5.80
2022-08-31T05:36:39.926Z,6.15
2022-08-31T05:39:16.201Z,4.50
2022-08-31T05:41:53.525Z,5.75
2022-08-31T05:44:29.394Z,7.75
2022-08-31T05:47:05.192Z,5.57
2022-08-31T05:49:40.959Z,5.57
2022-08-31T05:52:16.745Z,4.40
2022-08-31T05:54:51.969Z,4.50
2022-08-31T05:57:29.164Z,4.57
2022-08-31T06:00:04.050Z,4.90
2022-08-31T06:02:50.185Z,4.72
2022-08-31T06:05:28.542Z,4.00
2022-08-31T06:08:06.474Z,4.32
2022-08-31T06:13:19.427Z,3.30
2022-08-31T06:15:53.809Z,3.77
2022-08-31T06:18:28.662Z,3.63
2022-08-31T06:21:09.534Z,3.72
2022-08-31T06:23:44.884Z,3.47
2022-08-31T06:26:20.677Z,3.00
2022-08-31T06:29:03.811Z,3.28
2022-08-31T06:31:47.329Z,3.35
2022-08-31T06:34:26.377Z,2.75
2022-08-31T06:37:20.743Z,3.00
2022-08-31T06:40:09.574Z,3.10
2022-08-31T06:42:59.153Z,3.42
2022-08-31T06:45:45.621Z,3.58
2022-08-31T06:48:40.901Z,3.20
2022-08-31T06:51:15.343Z,3.80
2022-08-31T06:53:50.198Z,2.97
2022-08-31T06:56:44.802Z,2.63
2022-08-31T06:59:55.797Z,2.58
2022-08-31T07:02:53.164Z,2.63
2022-08-31T07:05:32.871Z,2.50
2022-08-31T07:08:08.046Z,2.83
2022-08-31T07:10:43.106Z,2.40
2022-08-31T07:13:30.661Z,2.77
2022-08-31T07:16:07.412Z,2.50
2022-08-31T07:21:22.594Z,2.60
2022-08-31T07:23:59.360Z,2.42
2022-08-31T07:26:36.744Z,2.40
2022-08-31T07:29:15.355Z,2.03
2022-08-31T07:31:52.770Z,1.88
2022-08-31T07:34:34.274Z,2.35
2022-08-31T07:37:42.867Z,2.25
2022-08-31T07:40:30.555Z,2.00
2022-08-31T07:43:06.735Z,2.30
2022-08-31T07:45:45.285Z,2.65
2022-08-31T07:48:28.094Z,2.72
2022-08-31T07:51:23.787Z,1.92
2022-08-31T07:54:18.234Z,1.83
2022-08-31T07:57:08.893Z,2.28
2022-08-31T07:59:45.202Z,2.33
2022-08-31T08:02:21.628Z,2.50
2022-08-31T08:05:01.557Z,2.53
2022-08-31T08:08:13.630Z,1.90
2022-08-31T08:11:07.096Z,2.00
2022-08-31T08:14:08.980Z,2.25
2022-08-31T08:16:56.496Z,1.92
2022-08-31T08:19:43.956Z,1.70
2022-08-31T08:22:35.678Z,1.95
2022-08-31T08:25:40.754Z,2.03
2022-08-31T08:28:45.422Z,1.55
2022-08-31T08:31:24.715Z,1.50
2022-08-31T08:34:03.292Z,2.20
2022-08-31T08:36:41.208Z,1.90
2022-08-31T08:39:17.133Z,2.20
2022-08-31T08:44:40.479Z,2.28
2022-08-31T08:47:20.972Z,1.90
2022-08-31T08:50:06.894Z,1.90
2022-08-31T08:52:47.177Z,1.67
2022-08-31T08:55:24.025Z,2.03
2022-08-31T08:58:03.651Z,1.80
2022-08-31T09:00:46.973Z,1.67
2022-08-31T09:03:30.749Z,1.90
2022-08-31T09:06:32.245Z,1.48
2022-08-31T09:09:37.417Z,1.70
2022-08-31T09:12:26.276Z,2.05
2022-08-31T09:15:39.446Z,2.15
2022-08-31T09:18:33.856Z,2.00
2022-08-31T09:21:25.585Z,1.85
2022-08-31T09:24:03.411Z,2.30
2022-08-31T09:27:17.552Z,2.00
2022-08-31T09:29:58.170Z,1.90
2022-08-31T09:32:33.109Z,1.60
2022-08-31T09:35:14.517Z,2.00
2022-08-31T09:37:53.140Z,1.95
2022-08-31T09:40:37.319Z,1.83
2022-08-31T09:43:13.757Z,1.83
2022-08-31T09:45:56.721Z,1.77
2022-08-31T09:48:49.099Z,1.45
2022-08-31T09:51:18.629Z,1.20
2022-08-31T09:54:08.581Z,1.70
2022-08-31T09:56:55.839Z,1.40
2022-08-31T09:59:38.594Z,1.73
2022-08-31T10:02:18.748Z,1.65
2022-08-31T10:04:55.307Z,1.40
2022-08-31T10:07:37.942Z,1.73
2022-08-31T10:10:28.049Z,1.93
2022-08-31T10:13:06.806Z,1.73
2022-08-31T10:15:45.296Z,1.17
2022-08-31T10:18:22.656Z,1.40
2022-08-31T10:20:59.031Z,1.25
2022-08-31T10:23:37.213Z,1.20
2022-08-31T10:26:18.592Z,1.42
2022-08-31T10:28:55.332Z,1.60
2022-08-31T10:31:32.222Z,1.52
2022-08-31T10:34:22.048Z,1.20
2022-08-31T10:36:55.494Z,1.00
2022-08-31T10:39:32.089Z,1.10
2022-08-31T10:42:12.733Z,1.10
2022-08-31T10:44:57.060Z,0.80
2022-08-31T10:47:34.518Z,1.10
2022-08-31T10:50:10.752Z,1.38
2022-08-31T10:52:52.048Z,0.90
2022-08-31T10:55:33.401Z,0.80
2022-08-31T10:58:16.429Z,0.93
2022-08-31T11:00:54.307Z,0.68
2022-08-31T11:03:41.688Z,0.73
2022-08-31T11:06:18.456Z,0.70
2022-08-31T11:08:57.802Z,0.67
2022-08-31T11:11:43.836Z,0.75
2022-08-31T11:14:36.920Z,0.63
2022-08-31T11:17:22.385Z,0.80
2022-08-31T11:20:10.836Z,0.90
2022-08-31T11:22:56.766Z,0.70
2022-08-31T11:26:08.992Z,0.90
2022-08-31T11:28:48.486Z,0.70
2022-08-31T11:31:32.279Z,0.60
2022-08-31T11:34:17.256Z,0.80
2022-08-31T11:36:55.014Z,0.75
2022-08-31T11:39:53.522Z,0.68
2022-08-31T11:43:01.525Z,0.95
2022-08-31T11:45:37.999Z,0.60
2022-08-31T11:48:51.984Z,0.60
2022-08-31T11:51:25.737Z,0.70
2022-08-31T11:54:03.159Z,0.50
2022-08-31T11:56:41.154Z,0.50
2022-08-31T11:59:30.331Z,0.70
2022-08-31T12:02:37.052Z,0.70
2022-08-31T12:05:14.052Z,0.80
2022-08-31T12:07:50.360Z,0.70
2022-08-31T12:10:36.003Z,0.90
2022-08-31T12:13:36.885Z,0.60
2022-08-31T12:16:25.399Z,0.77
2022-08-31T12:19:09.900Z,0.60
2022-08-31T12:21:59.613Z,0.65
2022-08-31T12:24:38.037Z,0.90
2022-08-31T12:27:34.452Z,0.77
2022-08-31T12:30:22.167Z,0.80
2022-08-31T12:33:01.511Z,0.88
2022-08-31T12:35:36.874Z,1.00
2022-08-31T12:38:12.511Z,0.75
2022-08-31T12:43:27.121Z,0.75
2022-08-31T12:46:28.704Z,0.63
2022-08-31T12:49:09.874Z,0.75
2022-08-31T12:51:47.462Z,0.50
2022-08-31T12:55:09.972Z,0.60
2022-08-31T12:57:57.051Z,0.50
2022-08-31T13:00:35.707Z,0.57
2022-08-31T13:03:20.985Z,0.50
2022-08-31T13:06:08.499Z,0.70
2022-08-31T13:08:45.229Z,0.65
2022-08-31T13:11:35.333Z,0.60
2022-08-31T13:14:18.857Z,0.50
2022-08-31T13:16:57.052Z,0.70
2022-08-31T13:19:33.286Z,0.68
2022-08-31T13:22:08.918Z,0.50
2022-08-31T13:27:27.956Z,0.90
2022-08-31T13:30:18.725Z,0.77
2022-08-31T13:32:57.610Z,0.50
2022-08-31T13:35:35.933Z,0.60
2022-08-31T13:38:12.514Z,1.10
2022-08-31T13:40:54.288Z,0.90
2022-08-31T13:43:29.416Z,0.82
2022-08-31T13:46:05.152Z,0.60
2022-08-31T13:51:21.373Z,1.00
2022-08-31T13:54:09.327Z,0.90
2022-08-31T13:56:59.986Z,0.90
2022-08-31T13:59:38.984Z,0.60
2022-08-31T14:02:36.794Z,0.65
2022-08-31T14:05:15.171Z,0.70
2022-08-31T14:08:02.534Z,0.70
2022-08-31T14:10:38.939Z,0.60
2022-08-31T14:13:21.160Z,0.80
2022-08-31T14:15:56.727Z,0.70
2022-08-31T14:18:33.559Z,0.70
2022-08-31T14:21:24.000Z,0.60
2022-08-31T14:24:02.996Z,0.90
2022-08-31T14:26:37.231Z,0.50
2022-08-31T14:29:12.682Z,0.70
2022-08-31T14:31:52.506Z,0.95
2022-08-31T14:34:30.573Z,0.70
2022-08-31T14:37:10.768Z,0.90
2022-08-31T14:39:46.824Z,0.80
2022-08-31T14:42:24.923Z,0.70
2022-08-31T14:45:03.335Z,0.90
2022-08-31T14:47:42.867Z,0.90
2022-08-31T14:50:18.942Z,1.00
2022-08-31T14:52:57.724Z,0.70
2022-08-31T14:55:33.203Z,0.60
2022-08-31T14:58:09.205Z,0.80
2022-08-31T15:00:51.049Z,0.70
2022-08-31T15:03:26.955Z,0.65
2022-08-31T15:08:41.147Z,0.70
2022-08-31T15:11:15.625Z,1.00
2022-08-31T15:13:51.654Z,0.95
2022-08-31T15:16:27.318Z,1.05
2022-08-31T15:21:44.834Z,0.73
2022-08-31T15:24:24.712Z,1.42
2022-08-31T15:27:01.769Z,1.02
2022-08-31T15:29:36.435Z,0.60
2022-08-31T15:32:14.588Z,1.10
2022-08-31T15:34:58.230Z,0.90
2022-08-31T15:37:32.949Z,0.60
2022-08-31T15:40:11.496Z,0.90
2022-08-31T15:42:48.296Z,0.80
2022-08-31T15:45:23.651Z,0.90
2022-08-31T15:48:10.763Z,1.05
2022-08-31T15:50:55.935Z,0.90
2022-08-31T15:53:31.017Z,0.90
2022-08-31T15:56:09.622Z,0.82
2022-08-31T15:58:44.173Z,1.30
2022-08-31T16:01:19.148Z,1.03
2022-08-31T16:03:55.189Z,1.20
2022-08-31T16:06:32.847Z,1.13
2022-08-31T16:09:09.975Z,1.52
2022-08-31T16:11:47.254Z,1.10
2022-08-31T16:14:21.611Z,1.08
2022-08-31T16:16:57.906Z,0.60
2022-08-31T16:19:36.000Z,0.90
2022-08-31T16:22:10.690Z,0.80
2022-08-31T16:24:47.089Z,0.80
2022-08-31T16:27:24.249Z,0.77
2022-08-31T16:29:58.591Z,1.10
2022-08-31T16:32:33.167Z,0.98
2022-08-31T16:35:07.341Z,0.80
2022-08-31T16:37:41.890Z,0.95
2022-08-31T16:40:16.342Z,0.90
2022-08-31T16:42:53.445Z,0.70
2022-08-31T16:45:28.074Z,0.95
2022-08-31T16:48:14.305Z,0.57
2022-08-31T16:50:49.810Z,0.70
2022-08-31T16:53:24.849Z,0.87
2022-08-31T16:56:00.404Z,0.68
2022-08-31T16:58:51.636Z,1.60
2022-08-31T17:01:28.534Z,0.93
2022-08-31T17:04:04.899Z,1.00
2022-08-31T17:06:40.023Z,1.00
2022-08-31T17:09:16.535Z,1.77
2022-08-31T17:11:57.307Z,1.93
2022-08-31T17:14:36.208Z,1.20
2022-08-31T17:17:10.056Z,1.45
2022-08-31T17:19:44.689Z,1.60
2022-08-31T17:22:25.752Z,2.07
2022-08-31T17:25:04.942Z,3.10
2022-08-31T17:27:39.300Z,2.00
2022-08-31T17:30:17.519Z,1.70
2022-08-31T17:32:53.086Z,2.85
2022-08-31T17:35:28.147Z,3.30
2022-08-31T17:38:03.452Z,2.10
2022-08-31T17:40:37.534Z,2.13
2022-08-31T17:43:15.423Z,1.92
2022-08-31T17:45:52.351Z,2.65
2022-08-31T17:48:30.018Z,3.10
2022-08-31T17:51:09.282Z,3.20
2022-08-31T17:53:43.737Z,3.58
2022-08-31T17:56:20.956Z,3.20
2022-08-31T17:58:58.684Z,2.80
2022-08-31T18:01:36.227Z,3.38
2022-08-31T18:04:10.530Z,3.20
2022-08-31T18:06:46.818Z,2.45
2022-08-31T18:09:22.343Z,3.72
2022-08-31T18:11:56.533Z,4.20
2022-08-31T18:14:32.862Z,3.08
2022-08-31T18:17:12.853Z,2.93
2022-08-31T18:19:48.572Z,2.53
2022-08-31T18:24:58.681Z,2.83
2022-08-31T18:27:33.955Z,3.53
2022-08-31T18:30:10.022Z,3.20
2022-08-31T18:32:49.943Z,3.23
2022-08-31T18:35:25.320Z,2.92
2022-08-31T18:37:59.135Z,3.28
2022-08-31T18:40:45.490Z,3.17
2022-08-31T18:43:33.053Z,2.70
2022-08-31T18:46:07.820Z,3.85
2022-08-31T18:49:01.164Z,2.83
2022-08-31T18:51:46.708Z,2.70
2022-08-31T18:54:21.342Z,2.80
2022-08-31T18:56:55.050Z,2.87
2022-08-31T18:59:29.177Z,2.45
2022-08-31T19:02:03.403Z,2.80
2022-08-31T19:04:41.663Z,3.90
2022-08-31T19:07:17.057Z,3.13
2022-08-31T19:09:52.704Z,3.25
2022-08-31T19:12:28.209Z,3.33
2022-08-31T19:15:03.747Z,2.97
2022-08-31T19:17:39.848Z,3.00
2022-08-31T19:20:16.890Z,3.00
2022-08-31T19:22:51.302Z,2.65
2022-08-31T19:25:25.153Z,2.60
2022-08-31T19:28:01.738Z,2.28
2022-08-31T19:30:36.153Z,3.00
2022-08-31T19:33:12.525Z,2.67
2022-08-31T19:35:49.717Z,2.80
2022-08-31T19:38:27.636Z,2.97
2022-08-31T19:41:00.995Z,3.42
2022-08-31T19:43:46.930Z,3.63
2022-08-31T19:46:28.223Z,3.30
2022-08-31T19:49:02.734Z,4.13
2022-08-31T19:51:40.311Z,4.30
2022-08-31T19:54:14.767Z,4.55
2022-08-31T19:56:49.278Z,5.32
2022-08-31T19:59:24.410Z,4.85
2022-08-31T20:01:59.793Z,5.43
2022-08-31T20:04:34.831Z,4.88
2022-08-31T20:07:14.622Z,4.30
2022-08-31T20:09:49.589Z,4.90
2022-08-31T20:12:24.611Z,5.00
2022-08-31T20:14:59.244Z,4.43
2022-08-31T20:17:33.745Z,3.33
2022-08-31T20:20:12.212Z,3.20
2022-08-31T20:22:49.534Z,3.55
2022-08-31T20:25:27.062Z,4.70
2022-08-31T20:28:01.648Z,3.72
2022-08-31T20:30:39.052Z,3.60
2022-08-31T20:33:14.241Z,3.20
2022-08-31T20:35:52.220Z,3.10
2022-08-31T20:38:29.334Z,3.10
2022-08-31T20:41:06.135Z,3.47
2022-08-31T20:43:40.841Z,3.92
2022-08-31T20:46:36.367Z,2.75
2022-08-31T20:49:23.679Z,4.23
2022-08-31T20:51:58.960Z,3.08
2022-08-31T20:54:35.446Z,3.50
2022-08-31T20:57:12.398Z,2.90
2022-08-31T20:59:46.815Z,3.30
2022-08-31T21:02:23.149Z,3.42
2022-08-31T21:05:10.399Z,3.05
2022-08-31T21:07:52.492Z,2.75
2022-08-31T21:10:36.763Z,2.35
2022-08-31T21:13:15.753Z,3.03
2022-08-31T21:15:51.034Z,2.80
2022-08-31T21:18:25.960Z,2.83
2022-08-31T21:21:01.269Z,2.67
2022-08-31T21:23:35.281Z,2.38
2022-08-31T21:26:13.751Z,2.90
2022-08-31T21:28:51.267Z,2.67
2022-08-31T21:31:28.743Z,2.80
2022-08-31T21:34:04.511Z,2.65
2022-08-31T21:36:38.967Z,2.85
2022-08-31T21:39:15.100Z,2.33
2022-08-31T21:41:49.527Z,3.00
2022-08-31T21:44:25.803Z,2.97
2022-08-31T21:47:00.422Z,2.80
2022-08-31T21:49:34.465Z,2.73
2022-08-31T21:52:08.530Z,3.13
2022-08-31T21:54:45.045Z,3.25
2022-08-31T21:57:19.123Z,2.50
2022-08-31T21:59:55.819Z,3.05
2022-08-31T22:02:30.226Z,3.20
2022-08-31T22:05:08.591Z,2.85
2022-08-31T22:07:43.215Z,3.70
2022-08-31T22:10:17.138Z,3.25
2022-08-31T22:12:51.159Z,2.90
2022-08-31T22:15:28.458Z,3.45
2022-08-31T22:18:35.290Z,2.90
2022-08-31T22:20:57.081Z,3.00
2022-08-31T22:23:31.056Z,3.30
2022-08-31T22:26:05.178Z,2.90
2022-08-31T22:28:40.203Z,2.90
2022-08-31T22:31:16.938Z,3.10
2022-08-31T22:33:51.538Z,3.35
2022-08-31T22:36:31.820Z,2.90
2022-08-31T22:39:06.776Z,2.63
2022-08-31T22:41:41.918Z,3.38
2022-08-31T22:44:17.560Z,3.53
2022-08-31T22:46:56.418Z,3.30
2022-08-31T22:49:30.171Z,3.10
2022-08-31T22:52:04.623Z,3.27
2022-08-31T22:54:39.135Z,3.05
2022-08-31T22:57:13.215Z,3.45
2022-08-31T22:59:47.616Z,2.78
2022-08-31T23:02:25.436Z,3.80
2022-08-31T23:05:01.781Z,3.22
2022-08-31T23:07:36.152Z,3.15
2022-08-31T23:10:11.290Z,2.50
2022-08-31T23:12:45.188Z,2.47
2022-08-31T23:15:19.171Z,2.60
2022-08-31T23:17:57.871Z,2.88
2022-08-31T23:20:32.333Z,2.75
2022-08-31T23:23:06.219Z,3.10
2022-08-31T23:25:40.097Z,3.00
2022-08-31T23:28:14.093Z,3.30
2022-08-31T23:30:50.312Z,2.47
2022-08-31T23:33:27.084Z,2.00
2022-08-31T23:36:01.215Z,2.00
2022-08-31T23:38:35.349Z,2.70
2022-08-31T23:41:09.869Z,1.95
2022-08-31T23:43:49.033Z,2.55
2022-08-31T23:46:24.046Z,2.10
2022-08-31T23:49:00.791Z,2.63
2022-08-31T23:51:35.750Z,3.20
2022-08-31T23:54:10.745Z,2.50
2022-08-31T23:56:43.789Z,2.33
2022-08-31T23:59:19.927Z,2.50
